^^
Grace C. Lehan Memorial Weather Station Historical Data
Daily Summary for January 17, 2022 Units:  Both    English   Metric
Daily Weekly Monthly Yearly
  High: Low: Average:
Temperature: 44.7 °F /  7.1 °C 25.3 °F /  -3.7 °C 36.8 °F /  2.7 °C
Dew Point: 43.5 °F /  6.4 °C 22.3 °F /  -5.4 °C 34 °F /  1.1 °C
Humidity: 96% 71% 89%
Wind Speed: 10.8mph /  17.4km/h - 2.6mph /  4.2km/h
Wind Gust: 24mph /  38.6km/h - -
Wind- - South
Pressure: 29.89 in /  1012.1 hPa 29.01 in /  982.3 hPa -
Precipitation: 0.14 in /  3.56 mm    
 
 
Tabular Data for January 17, 2022
Time Temperature Dew Point Pressure Wind Wind Speed Wind Gust Humidity Rainfall Rate (Hourly) solar
00:04 25.3 °F /  -3.7 °C 22.3 °F /  -5.4 °C 29.89in /  1012.1hPa NNW 1.9mph /  3.1km/h 10mph /  16.1km/h 88% 0.00in /  0mm 0 W/m2
00:09 25.4 °F /  -3.7 °C 22.4 °F /  -5.3 °C 29.88in /  1011.7hPa NNW 1.6mph /  2.6km/h 6mph /  9.7km/h 88% 0.00in /  0mm 0 W/m2
00:14 25.6 °F /  -3.6 °C 22.7 °F /  -5.2 °C 29.87in /  1011.4hPa NNW 1.9mph /  3.1km/h 6mph /  9.7km/h 88.8% 0.00in /  0mm 0 W/m2
00:19 25.7 °F /  -3.5 °C 22.9 °F /  -5.1 °C 29.86in /  1011.1hPa NNW 2.9mph /  4.7km/h 7mph /  11.3km/h 89% 0.00in /  0mm 0 W/m2
00:24 25.8 °F /  -3.4 °C 23 °F /  -5 °C 29.85in /  1010.7hPa NNW 2.6mph /  4.2km/h 7mph /  11.3km/h 89% 0.00in /  0mm 0 W/m2
00:29 26 °F /  -3.3 °C 23.2 °F /  -4.9 °C 29.85in /  1010.7hPa North 2.2mph /  3.5km/h 7mph /  11.3km/h 89% 0.00in /  0mm 0 W/m2
00:34 26.1 °F /  -3.3 °C 23.3 °F /  -4.8 °C 29.84in /  1010.4hPa NNW 1.8mph /  2.9km/h 7mph /  11.3km/h 89% 0.00in /  0mm 0 W/m2
00:39 26.2 °F /  -3.2 °C 23.4 °F /  -4.8 °C 29.83in /  1010hPa North 2mph /  3.2km/h 5mph /  8km/h 89% 0.00in /  0mm 0 W/m2
00:44 26.3 °F /  -3.2 °C 23.5 °F /  -4.7 °C 29.82in /  1009.7hPa North 2.9mph /  4.7km/h 7mph /  11.3km/h 89.1% 0.00in /  0mm 0 W/m2
00:49 26.4 °F /  -3.1 °C 23.9 °F /  -4.5 °C 29.81in /  1009.4hPa North 1mph /  1.6km/h 7mph /  11.3km/h 90% 0.00in /  0mm 0 W/m2
00:54 26.5 °F /  -3.1 °C 24 °F /  -4.4 °C 29.80in /  1009hPa NNW 1.9mph /  3.1km/h 7mph /  11.3km/h 90% 0.00in /  0mm 0 W/m2
00:59 26.6 °F /  -3 °C 24.1 °F /  -4.4 °C 29.80in /  1009hPa North 1.9mph /  3.1km/h 7mph /  11.3km/h 90% 0.00in /  0mm 0 W/m2
01:04 26.8 °F /  -2.9 °C 24.3 °F /  -4.3 °C 29.79in /  1008.7hPa North 2mph /  3.2km/h 7mph /  11.3km/h 90% 0.00in /  0mm 0 W/m2
01:09 27 °F /  -2.8 °C 24.5 °F /  -4.2 °C 29.77in /  1008hPa NE 1.3mph /  2.1km/h 7mph /  11.3km/h 90.1% 0.00in /  0mm 0 W/m2
01:14 27.2 °F /  -2.7 °C 24.9 °F /  -3.9 °C 29.76in /  1007.7hPa NNE 2.3mph /  3.7km/h 7mph /  11.3km/h 91% 0.00in /  0mm 0 W/m2
01:19 27.4 °F /  -2.6 °C 25.1 °F /  -3.8 °C 29.75in /  1007.3hPa NNE 1.1mph /  1.8km/h 7mph /  11.3km/h 91% 0.00in /  0mm 0 W/m2
01:24 27.6 °F /  -2.4 °C 25.3 °F /  -3.7 °C 29.75in /  1007.3hPa NNE 1.6mph /  2.6km/h 7mph /  11.3km/h 91% 0.00in /  0mm 0 W/m2
01:29 27.8 °F /  -2.3 °C 25.5 °F /  -3.6 °C 29.74in /  1007hPa NNE 1.9mph /  3.1km/h 7mph /  11.3km/h 91% 0.00in /  0mm 0 W/m2
01:34 28.1 °F /  -2.2 °C 25.9 °F /  -3.4 °C 29.74in /  1007hPa NE 2.2mph /  3.5km/h 9mph /  14.5km/h 91.4% 0.00in /  0mm 0 W/m2
01:39 28.6 °F /  -1.9 °C 26.6 °F /  -3 °C 29.73in /  1006.7hPa NE 2mph /  3.2km/h 9mph /  14.5km/h 92% 0.00in /  0mm 0 W/m2
01:44 29.1 °F /  -1.6 °C 27 °F /  -2.8 °C 29.71in /  1006hPa NE 4.1mph /  6.6km/h 11mph /  17.7km/h 92% 0.00in /  0mm 0 W/m2
01:49 29.8 °F /  -1.2 °C 28 °F /  -2.2 °C 29.70in /  1005.6hPa NE 3mph /  4.8km/h 11mph /  17.7km/h 93% 0.00in /  0mm 0 W/m2
01:54 30.4 °F /  -0.9 °C 28.6 °F /  -1.9 °C 29.70in /  1005.6hPa NE 2.5mph /  4km/h 13mph /  20.9km/h 93% 0.00in /  0mm 0 W/m2
01:59 30.8 °F /  -0.7 °C 29.1 °F /  -1.6 °C 29.70in /  1005.6hPa NE 4.2mph /  6.8km/h 13mph /  20.9km/h 93% 0.00in /  0mm 0 W/m2
02:04 31.2 °F /  -0.4 °C 29.4 °F /  -1.4 °C 29.68in /  1005hPa NE 4.4mph /  7.1km/h 13mph /  20.9km/h 93% 0.00in /  0mm 0 W/m2
02:09 31.6 °F /  -0.2 °C 29.8 °F /  -1.2 °C 29.68in /  1005hPa NE 3.4mph /  5.5km/h 15mph /  24.1km/h 93% 0.00in /  0mm 0 W/m2
02:14 31.8 °F /  -0.1 °C 30 °F /  -1.1 °C 29.67in /  1004.6hPa NE 3.9mph /  6.3km/h 15mph /  24.1km/h 93% 0.00in /  0mm 0 W/m2
02:19 32.1 °F /  0.1 °C 30.3 °F /  -0.9 °C 29.66in /  1004.3hPa NE 3.9mph /  6.3km/h 15mph /  24.1km/h 93% 0.00in /  0mm 0 W/m2
02:24 32.4 °F /  0.2 °C 30.6 °F /  -0.8 °C 29.66in /  1004.3hPa NE 3.5mph /  5.6km/h 15mph /  24.1km/h 93% 0.00in /  0mm 0 W/m2
02:29 32.6 °F /  0.3 °C 30.8 °F /  -0.7 °C 29.66in /  1004.3hPa NE 3.8mph /  6.1km/h 15mph /  24.1km/h 92.8% 0.00in /  0mm 0 W/m2
02:34 32.8 °F /  0.4 °C 30.8 °F /  -0.7 °C 29.64in /  1003.6hPa NE 2.7mph /  4.3km/h 15mph /  24.1km/h 92% 0.00in /  0mm 0 W/m2
02:39 32.9 °F /  0.5 °C 30.9 °F /  -0.6 °C 29.63in /  1003.3hPa NNE 3mph /  4.8km/h 11mph /  17.7km/h 92% 0.00in /  0mm 0 W/m2
02:44 33.1 °F /  0.6 °C 31 °F /  -0.6 °C 29.63in /  1003.3hPa NE 3.4mph /  5.5km/h 11mph /  17.7km/h 92% 0.00in /  0mm 0 W/m2
02:49 33.2 °F /  0.7 °C 31.1 °F /  -0.5 °C 29.62in /  1002.9hPa ENE 2.1mph /  3.4km/h 11mph /  17.7km/h 92% 0.00in /  0mm 0 W/m2
02:54 33.3 °F /  0.7 °C 31.2 °F /  -0.4 °C 29.61in /  1002.6hPa NE 3.6mph /  5.8km/h 11mph /  17.7km/h 92% 0.00in /  0mm 0 W/m2
02:59 33.4 °F /  0.8 °C 31.3 °F /  -0.4 °C 29.59in /  1001.9hPa ENE 3.9mph /  6.3km/h 11mph /  17.7km/h 92% 0.00in /  0mm 0 W/m2
03:04 33.5 °F /  0.8 °C 31.4 °F /  -0.3 °C 29.59in /  1001.9hPa ENE 4.6mph /  7.4km/h 11mph /  17.7km/h 92% 0.00in /  0mm 0 W/m2
03:09 33.6 °F /  0.9 °C 31.6 °F /  -0.2 °C 29.58in /  1001.6hPa NE 4.5mph /  7.2km/h 13mph /  20.9km/h 92.4% 0.00in /  0mm 0 W/m2
03:14 33.7 °F /  0.9 °C 31.9 °F /  -0.1 °C 29.57in /  1001.2hPa NE 4.2mph /  6.8km/h 13mph /  20.9km/h 93% 0.00in /  0mm 0 W/m2
03:19 33.7 °F /  0.9 °C 31.9 °F /  -0.1 °C 29.55in /  1000.6hPa NE 4.8mph /  7.7km/h 13mph /  20.9km/h 93% 0.00in /  0mm 0 W/m2
03:24 33.8 °F /  1 °C 32 °F /  0 °C 29.54in /  1000.2hPa NE 4.5mph /  7.2km/h 13mph /  20.9km/h 93% 0.00in /  0mm 0 W/m2
03:29 33.9 °F /  1.1 °C 32.1 °F /  0.1 °C 29.53in /  999.9hPa NE 4.3mph /  6.9km/h 13mph /  20.9km/h 93% 0.00in /  0mm 0 W/m2
03:34 34 °F /  1.1 °C 32.2 °F /  0.1 °C 29.53in /  999.9hPa ENE 6.2mph /  10km/h 14mph /  22.5km/h 93% 0.00in /  0mm 0 W/m2
03:39 34.1 °F /  1.2 °C 32.3 °F /  0.2 °C 29.51in /  999.2hPa ENE 5.4mph /  8.7km/h 14mph /  22.5km/h 93% 0.00in /  0mm 0 W/m2
03:44 34.2 °F /  1.2 °C 32.4 °F /  0.2 °C 29.50in /  998.9hPa NE 6.6mph /  10.6km/h 14mph /  22.5km/h 93% 0.00in /  0mm 0 W/m2
03:49 34.3 °F /  1.3 °C 32.5 °F /  0.3 °C 29.49in /  998.5hPa NE 4.1mph /  6.6km/h 14mph /  22.5km/h 93% 0.00in /  0mm 0 W/m2
03:54 34.4 °F /  1.3 °C 32.6 °F /  0.3 °C 29.47in /  997.9hPa NE 5.2mph /  8.4km/h 14mph /  22.5km/h 93% 0.00in /  0mm 0 W/m2
03:59 34.4 °F /  1.3 °C 32.6 °F /  0.3 °C 29.46in /  997.5hPa NE 6.8mph /  10.9km/h 15mph /  24.1km/h 93% 0.00in /  0mm 0 W/m2
04:00 34.5 °F /  1.4 °C 32.7 °F /  0.4 °C 29.45in /  997.2hPa ENE 8mph /  12.9km/h 15mph /  24.1km/h 93% 0.00in /  0mm 0 W/m2
04:09 34.9 °F /  1.6 °C 33.2 °F /  0.7 °C 29.43in /  996.5hPa ENE 7.5mph /  12.1km/h 17mph /  27.4km/h 93.7% 0.00in /  0mm 0 W/m2
04:14 35.1 °F /  1.7 °C 33.5 °F /  0.8 °C 29.42in /  996.2hPa ENE 9.3mph /  15km/h 24mph /  38.6km/h 93.9% 0.00in /  0mm 0 W/m2
04:19 35.3 °F /  1.8 °C 33.8 °F /  1 °C 29.41in /  995.8hPa ENE 7.6mph /  12.2km/h 24mph /  38.6km/h 93.9% 0.00in /  0mm 0 W/m2
04:24 35.6 °F /  2 °C 34 °F /  1.1 °C 29.41in /  995.8hPa ENE 9.1mph /  14.6km/h 24mph /  38.6km/h 93.5% 0.00in /  0mm 0 W/m2
04:29 35.9 °F /  2.2 °C 34.1 °F /  1.2 °C 29.40in /  995.5hPa ENE 7.2mph /  11.6km/h 24mph /  38.6km/h 93% 0.00in /  0mm 0 W/m2
04:34 36.1 °F /  2.3 °C 34.3 °F /  1.3 °C 29.37in /  994.5hPa ENE 8.6mph /  13.8km/h 24mph /  38.6km/h 93% 0.00in /  0mm 0 W/m2
04:39 36.4 °F /  2.4 °C 34.6 °F /  1.4 °C 29.36in /  994.1hPa ENE 9.7mph /  15.6km/h 24mph /  38.6km/h 93% 0.00in /  0mm 0 W/m2
04:44 36.6 °F /  2.6 °C 34.8 °F /  1.6 °C 29.36in /  994.1hPa ENE 6.6mph /  10.6km/h 24mph /  38.6km/h 93% 0.00in /  0mm 0 W/m2
04:49 36.8 °F /  2.7 °C 35 °F /  1.7 °C 29.35in /  993.8hPa ENE 8.2mph /  13.2km/h 24mph /  38.6km/h 93% 0.01in /  0.25mm 0 W/m2
04:54 37 °F /  2.8 °C 35.2 °F /  1.8 °C 29.35in /  993.8hPa ENE 7.8mph /  12.6km/h 24mph /  38.6km/h 93% 0.01in /  0.25mm 0 W/m2
04:59 37.2 °F /  2.9 °C 35.4 °F /  1.9 °C 29.33in /  993.1hPa ENE 8.9mph /  14.3km/h 24mph /  38.6km/h 93% 0.01in /  0.25mm 0 W/m2
05:04 37.5 °F /  3.1 °C 35.6 °F /  2 °C 29.32in /  992.8hPa ENE 10.8mph /  17.4km/h 24mph /  38.6km/h 93% 0.01in /  0.25mm 0 W/m2
05:09 37.7 °F /  3.2 °C 35.7 °F /  2.1 °C 29.31in /  992.4hPa ENE 7.4mph /  11.9km/h 23mph /  37km/h 92.3% 0.01in /  0.25mm 0 W/m2
05:14 37.7 °F /  3.2 °C 35.6 °F /  2 °C 29.31in /  992.4hPa ENE 5.4mph /  8.7km/h 23mph /  37km/h 92% 0.01in /  0.25mm 0 W/m2
05:19 37.7 °F /  3.2 °C 35.6 °F /  2 °C 29.30in /  992.1hPa ENE 3.9mph /  6.3km/h 23mph /  37km/h 92% 0.01in /  0.25mm 0 W/m2
05:24 37.7 °F /  3.2 °C 35.6 °F /  2 °C 29.30in /  992.1hPa ENE 5.2mph /  8.4km/h 23mph /  37km/h 92% 0.01in /  0.25mm 0 W/m2
05:29 37.7 °F /  3.2 °C 35.6 °F /  2 °C 29.30in /  992.1hPa NE 3.4mph /  5.5km/h 23mph /  37km/h 92% 0.01in /  0.25mm 0 W/m2
05:34 37.7 °F /  3.2 °C 35.6 °F /  2 °C 29.29in /  991.8hPa NE 3.5mph /  5.6km/h 23mph /  37km/h 92% 0.01in /  0.25mm 0 W/m2
05:39 37.7 °F /  3.2 °C 35.6 °F /  2 °C 29.28in /  991.4hPa East 0.7mph /  1.1km/h 9mph /  14.5km/h 92% 0.01in /  0.25mm 0 W/m2
05:44 37.7 °F /  3.2 °C 35.6 °F /  2 °C 29.28in /  991.4hPa NE 1mph /  1.6km/h 9mph /  14.5km/h 92% 0.01in /  0.25mm 0 W/m2
05:49 37.7 °F /  3.2 °C 35.6 °F /  2 °C 29.26in /  990.7hPa NE 1.9mph /  3.1km/h 9mph /  14.5km/h 92% 0.01in /  0.25mm 0 W/m2
05:54 37.6 °F /  3.1 °C 35.5 °F /  1.9 °C 29.25in /  990.4hPa NE 2.1mph /  3.4km/h 9mph /  14.5km/h 92% 0.01in /  0.25mm 0 W/m2
05:59 37.6 °F /  3.1 °C 35.7 °F /  2.1 °C 29.25in /  990.4hPa NE 2.8mph /  4.5km/h 9mph /  14.5km/h 92.7% 0.01in /  0.25mm 0 W/m2
06:04 37.7 °F /  3.2 °C 35.8 °F /  2.1 °C 29.23in /  989.7hPa NE 3.3mph /  5.3km/h 9mph /  14.5km/h 93% 0.01in /  0.25mm 0 W/m2
06:09 37.7 °F /  3.2 °C 35.8 °F /  2.1 °C 29.22in /  989.4hPa NE 3.9mph /  6.3km/h 9mph /  14.5km/h 93% 0.00in /  0mm 0 W/m2
06:14 37.6 °F /  3.1 °C 35.8 °F /  2.1 °C 29.21in /  989.1hPa NE 1.9mph /  3.1km/h 9mph /  14.5km/h 93% 0.00in /  0mm 0 W/m2
06:19 37.7 °F /  3.2 °C 35.8 °F /  2.1 °C 29.22in /  989.4hPa NE 1.5mph /  2.4km/h 9mph /  14.5km/h 93% 0.00in /  0mm 0 W/m2
06:24 37.8 °F /  3.2 °C 36.1 °F /  2.3 °C 29.21in /  989.1hPa NE 3mph /  4.8km/h 10mph /  16.1km/h 93.5% 0.00in /  0mm 0 W/m2
06:29 38 °F /  3.3 °C 36.5 °F /  2.5 °C 29.20in /  988.7hPa NE 1.7mph /  2.7km/h 10mph /  16.1km/h 94% 0.00in /  0mm 0 W/m2
06:34 38.2 °F /  3.4 °C 36.6 °F /  2.6 °C 29.20in /  988.7hPa ENE 3.4mph /  5.5km/h 10mph /  16.1km/h 94% 0.00in /  0mm 0 W/m2
06:39 38.3 °F /  3.5 °C 36.7 °F /  2.6 °C 29.19in /  988.4hPa NE 1.7mph /  2.7km/h 7mph /  11.3km/h 94% 0.00in /  0mm 0 W/m2
06:44 38.4 °F /  3.6 °C 36.8 °F /  2.7 °C 29.19in /  988.4hPa Calm   7mph /  11.3km/h 94% 0.00in /  0mm 0 W/m2
06:49 38.5 °F /  3.6 °C 36.9 °F /  2.7 °C 29.19in /  988.4hPa NE 0.9mph /  1.4km/h 7mph /  11.3km/h 94% 0.00in /  0mm 0 W/m2
06:54 38.5 °F /  3.6 °C 36.9 °F /  2.7 °C 29.18in /  988hPa NE 0.1mph /  0.2km/h 7mph /  11.3km/h 94% 0.00in /  0mm 0 W/m2
06:59 38.5 °F /  3.6 °C 36.9 °F /  2.7 °C 29.17in /  987.7hPa Calm   7mph /  11.3km/h 94% 0.00in /  0mm 0 W/m2
07:04 38.5 °F /  3.6 °C 36.9 °F /  2.7 °C 29.16in /  987.4hPa Calm   7mph /  11.3km/h 94% 0.00in /  0mm 0 W/m2
07:09 38.4 °F /  3.6 °C 36.9 °F /  2.7 °C 29.17in /  987.7hPa Calm     94% 0.00in /  0mm 0 W/m2
07:14 38.6 °F /  3.7 °C 37 °F /  2.8 °C 29.16in /  987.4hPa Calm     94% 0.00in /  0mm 0 W/m2
07:19 38.6 °F /  3.7 °C 37 °F /  2.8 °C 29.16in /  987.4hPa Calm     94% 0.00in /  0mm 0 W/m2
07:24 38.6 °F /  3.7 °C 37 °F /  2.8 °C 29.15in /  987hPa Calm     94% 0.00in /  0mm 0 W/m2
07:29 38.6 °F /  3.7 °C 37 °F /  2.8 °C 29.14in /  986.7hPa Calm     94% 0.00in /  0mm 0 W/m2
07:34 38.5 °F /  3.6 °C 36.9 °F /  2.7 °C 29.14in /  986.7hPa NE 0.4mph /  0.6km/h 4mph /  6.4km/h 94% 0.00in /  0mm 0 W/m2
07:39 38.6 °F /  3.7 °C 37 °F /  2.8 °C 29.14in /  986.7hPa Calm   4mph /  6.4km/h 94% 0.00in /  0mm 0 W/m2
07:44 39 °F /  3.9 °C 37.7 °F /  3.2 °C 29.14in /  986.7hPa Calm   4mph /  6.4km/h 94.9% 0.00in /  0mm 0 W/m2
07:49 39.4 °F /  4.1 °C 38.1 °F /  3.4 °C 29.14in /  986.7hPa Calm   4mph /  6.4km/h 95% 0.00in /  0mm 0 W/m2
07:54 39.7 °F /  4.3 °C 38.4 °F /  3.6 °C 29.14in /  986.7hPa Calm   4mph /  6.4km/h 95% 0.00in /  0mm 0 W/m2
07:59 39.9 °F /  4.4 °C 38.6 °F /  3.7 °C 29.14in /  986.7hPa Calm   4mph /  6.4km/h 95% 0.00in /  0mm 0 W/m2
08:00 40 °F /  4.4 °C 38.7 °F /  3.7 °C 29.14in /  986.7hPa Calm   4mph /  6.4km/h 95% 0.00in /  0mm 0 W/m2
08:09 40.7 °F /  4.8 °C 39.4 °F /  4.1 °C 29.13in /  986.3hPa Calm     95% 0.00in /  0mm 9 W/m2
08:14 41.5 °F /  5.3 °C 40.2 °F /  4.6 °C 29.13in /  986.3hPa Calm     95.3% 0.00in /  0mm 11 W/m2
08:19 42.1 °F /  5.6 °C 40.8 °F /  4.9 °C 29.13in /  986.3hPa ENE 0.1mph /  0.2km/h 1mph /  1.6km/h 95.5% 0.00in /  0mm 21 W/m2
08:24 42.6 °F /  5.9 °C 41.5 °F /  5.3 °C 29.12in /  986hPa Calm   1mph /  1.6km/h 95.9% 0.00in /  0mm 65 W/m2
08:29 43.2 °F /  6.2 °C 42.1 °F /  5.6 °C 29.12in /  986hPa Calm   1mph /  1.6km/h 96% 0.00in /  0mm 79 W/m2
08:34 43.6 °F /  6.4 °C 42.5 °F /  5.8 °C 29.11in /  985.7hPa ENE 0.1mph /  0.2km/h 2mph /  3.2km/h 96% 0.00in /  0mm 60 W/m2
08:39 43.8 °F /  6.6 °C 42.7 °F /  5.9 °C 29.11in /  985.7hPa ENE 0.1mph /  0.2km/h 2mph /  3.2km/h 96% 0.00in /  0mm 60 W/m2
08:44 43.9 °F /  6.6 °C 42.8 °F /  6 °C 29.11in /  985.7hPa Calm   2mph /  3.2km/h 95.8% 0.00in /  0mm 104 W/m2
08:49 44.1 °F /  6.7 °C 42.9 °F /  6.1 °C 29.10in /  985.3hPa ENE 0.1mph /  0.2km/h 2mph /  3.2km/h 95.4% 0.00in /  0mm 93 W/m2
08:54 44.4 °F /  6.9 °C 43.3 °F /  6.3 °C 29.09in /  985hPa ENE 0.3mph /  0.5km/h 2mph /  3.2km/h 96% 0.00in /  0mm 114 W/m2
08:59 44.6 °F /  7 °C 43.5 °F /  6.4 °C 29.09in /  985hPa ENE 0.1mph /  0.2km/h 2mph /  3.2km/h 96% 0.00in /  0mm 77 W/m2
09:04 44.7 °F /  7.1 °C 43.4 °F /  6.3 °C 29.09in /  985hPa Calm   2mph /  3.2km/h 95.2% 0.00in /  0mm 23 W/m2
09:09 44.6 °F /  7 °C 43.3 °F /  6.3 °C 29.09in /  985hPa ENE 0.7mph /  1.1km/h 4mph /  6.4km/h 95% 0.00in /  0mm 63 W/m2
09:14 44.6 °F /  7 °C 43.3 °F /  6.3 °C 29.08in /  984.6hPa ENE 0.8mph /  1.3km/h 4mph /  6.4km/h 95% 0.00in /  0mm 63 W/m2
09:19 44.6 °F /  7 °C 43.3 °F /  6.3 °C 29.08in /  984.6hPa SE 2.1mph /  3.4km/h 6mph /  9.7km/h 95% 0.00in /  0mm 44 W/m2
09:24 44.6 °F /  7 °C 43.3 °F /  6.3 °C 29.08in /  984.6hPa South 3.6mph /  5.8km/h 13mph /  20.9km/h 95% 0.00in /  0mm 32 W/m2
09:29 44.5 °F /  6.9 °C 43.2 °F /  6.2 °C 29.07in /  984.3hPa South 2.9mph /  4.7km/h 13mph /  20.9km/h 95% 0.00in /  0mm 18 W/m2
09:34 44.4 °F /  6.9 °C 43 °F /  6.1 °C 29.08in /  984.6hPa SSW 5.9mph /  9.5km/h 16mph /  25.7km/h 95% 0.02in /  0.51mm 9 W/m2
09:39 43.9 °F /  6.6 °C 42.3 °F /  5.7 °C 29.08in /  984.6hPa SSW 4.2mph /  6.8km/h 16mph /  25.7km/h 94% 0.03in /  0.76mm 14 W/m2
09:44 43.5 °F /  6.4 °C 41.8 °F /  5.4 °C 29.08in /  984.6hPa SW 3.8mph /  6.1km/h 16mph /  25.7km/h 94% 0.04in /  1.02mm 30 W/m2
09:49 43 °F /  6.1 °C 41.2 °F /  5.1 °C 29.08in /  984.6hPa SW 3mph /  4.8km/h 16mph /  25.7km/h 93.2% 0.05in /  1.27mm 35 W/m2
09:54 42.7 °F /  5.9 °C 40.8 °F /  4.9 °C 29.08in /  984.6hPa SW 3.7mph /  6km/h 16mph /  25.7km/h 93% 0.05in /  1.27mm 35 W/m2
09:59 42.4 °F /  5.8 °C 40.5 °F /  4.7 °C 29.07in /  984.3hPa SW 3.7mph /  6km/h 16mph /  25.7km/h 93% 0.07in /  1.78mm 21 W/m2
10:04 42.1 °F /  5.6 °C 40.2 °F /  4.6 °C 29.07in /  984.3hPa SSW 2.5mph /  4km/h 16mph /  25.7km/h 93% 0.08in /  2.03mm 30 W/m2
10:09 41.8 °F /  5.4 °C 39.9 °F /  4.4 °C 29.07in /  984.3hPa SSW 2.4mph /  3.9km/h 10mph /  16.1km/h 93% 0.08in /  2.03mm 26 W/m2
10:14 41.5 °F /  5.3 °C 39.7 °F /  4.3 °C 29.07in /  984.3hPa SW 1mph /  1.6km/h 10mph /  16.1km/h 93% 0.09in /  2.29mm 21 W/m2
10:19 41.4 °F /  5.2 °C 39.5 °F /  4.2 °C 29.07in /  984.3hPa SW 2.1mph /  3.4km/h 12mph /  19.3km/h 93% 0.10in /  2.54mm 60 W/m2
10:24 41.3 °F /  5.2 °C 39.4 °F /  4.1 °C 29.07in /  984.3hPa SW 2.2mph /  3.5km/h 12mph /  19.3km/h 93% 0.10in /  2.54mm 104 W/m2
10:29 41.3 °F /  5.2 °C 39.4 °F /  4.1 °C 29.07in /  984.3hPa SW 1.6mph /  2.6km/h 12mph /  19.3km/h 93% 0.10in /  2.54mm 146 W/m2
10:34 41.3 °F /  5.2 °C 39.7 °F /  4.3 °C 29.06in /  984hPa SW 3.4mph /  5.5km/h 12mph /  19.3km/h 93.9% 0.10in /  2.54mm 128 W/m2
10:39 41.3 °F /  5.2 °C 39.6 °F /  4.2 °C 29.06in /  984hPa SSW 2.5mph /  4km/h 13mph /  20.9km/h 93.8% 0.10in /  2.54mm 116 W/m2
10:44 41.2 °F /  5.1 °C 39.4 °F /  4.1 °C 29.06in /  984hPa SSW 1.8mph /  2.9km/h 13mph /  20.9km/h 93% 0.10in /  2.54mm 413 W/m2
10:49 41.5 °F /  5.3 °C 39.9 °F /  4.4 °C 29.05in /  983.6hPa SW 0.9mph /  1.4km/h 13mph /  20.9km/h 93.8% 0.10in /  2.54mm 455 W/m2
10:54 42 °F /  5.6 °C 40.4 °F /  4.7 °C 29.05in /  983.6hPa SSW 1.1mph /  1.8km/h 13mph /  20.9km/h 94% 0.10in /  2.54mm 478 W/m2
10:59 42.4 °F /  5.8 °C 40.8 °F /  4.9 °C 29.05in /  983.6hPa SSW 0.9mph /  1.4km/h 13mph /  20.9km/h 94% 0.10in /  2.54mm 478 W/m2
11:04 42.6 °F /  5.9 °C 41 °F /  5 °C 29.05in /  983.6hPa South 2.1mph /  3.4km/h 13mph /  20.9km/h 93.8% 0.10in /  2.54mm 434 W/m2
11:09 42.5 °F /  5.8 °C 40.6 °F /  4.8 °C 29.05in /  983.6hPa South 1mph /  1.6km/h 11mph /  17.7km/h 93% 0.03in /  0.76mm 160 W/m2
11:14 42.2 °F /  5.7 °C 40.3 °F /  4.6 °C 29.05in /  983.6hPa SSW 2.4mph /  3.9km/h 11mph /  17.7km/h 92.8% 0.04in /  1.02mm 104 W/m2
11:19 41.7 °F /  5.4 °C 39.6 °F /  4.2 °C 29.04in /  983.3hPa SSW 2.1mph /  3.4km/h 11mph /  17.7km/h 92% 0.05in /  1.27mm 137 W/m2
11:24 41.4 °F /  5.2 °C 39.3 °F /  4.1 °C 29.04in /  983.3hPa SSW 1.8mph /  2.9km/h 11mph /  17.7km/h 92% 0.05in /  1.27mm 221 W/m2
11:29 41.5 °F /  5.3 °C 39.5 °F /  4.2 °C 29.04in /  983.3hPa SW 1.4mph /  2.3km/h 11mph /  17.7km/h 92.4% 0.05in /  1.27mm 197 W/m2
11:34 41.8 °F /  5.4 °C 39.9 °F /  4.4 °C 29.03in /  983hPa SW 1.8mph /  2.9km/h 11mph /  17.7km/h 93% 0.05in /  1.27mm 322 W/m2
11:39 41.9 °F /  5.5 °C 40.1 °F /  4.5 °C 29.03in /  983hPa SSW 1.8mph /  2.9km/h 9mph /  14.5km/h 93% 0.02in /  0.51mm 374 W/m2
11:44 42.3 °F /  5.7 °C 40.4 °F /  4.7 °C 29.02in /  982.6hPa SSW 2.1mph /  3.4km/h 9mph /  14.5km/h 93% 0.02in /  0.51mm 188 W/m2
11:49 42.3 °F /  5.7 °C 40.2 °F /  4.6 °C 29.03in /  983hPa SSW 5.8mph /  9.3km/h 15mph /  24.1km/h 91.9% 0.02in /  0.51mm 167 W/m2
11:54 42.1 °F /  5.6 °C 39.2 °F /  4 °C 29.05in /  983.6hPa SSW 3mph /  4.8km/h 15mph /  24.1km/h 89.4% 0.02in /  0.51mm 172 W/m2
11:59 42 °F /  5.6 °C 38.7 °F /  3.7 °C 29.06in /  984hPa SSW 2.9mph /  4.7km/h 15mph /  24.1km/h 88% 0.02in /  0.51mm 102 W/m2
12:00 41.9 °F /  5.5 °C 38.6 °F /  3.7 °C 29.06in /  984hPa SW 1mph /  1.6km/h 15mph /  24.1km/h 88% 0.02in /  0.51mm 65 W/m2
12:09 41.6 °F /  5.3 °C 37.8 °F /  3.2 °C 29.04in /  983.3hPa SW 4.3mph /  6.9km/h 15mph /  24.1km/h 86.1% 0.02in /  0.51mm 142 W/m2
12:14 41.3 °F /  5.2 °C 37.2 °F /  2.9 °C 29.04in /  983.3hPa SW 5.2mph /  8.4km/h 15mph /  24.1km/h 85% 0.02in /  0.51mm 142 W/m2
12:19 41.1 °F /  5.1 °C 36.7 °F /  2.6 °C 29.02in /  982.6hPa SW 4.2mph /  6.8km/h 15mph /  24.1km/h 84.1% 0.02in /  0.51mm 185 W/m2
12:24 41.1 °F /  5.1 °C 36.6 °F /  2.6 °C 29.02in /  982.6hPa SW 4mph /  6.4km/h 15mph /  24.1km/h 84% 0.02in /  0.51mm 185 W/m2
12:29 41.1 °F /  5.1 °C 36.6 °F /  2.6 °C 29.02in /  982.6hPa SW 2.9mph /  4.7km/h 15mph /  24.1km/h 84% 0.02in /  0.51mm 153 W/m2
12:34 41.1 °F /  5.1 °C 36.6 °F /  2.6 °C 29.02in /  982.6hPa SW 2.4mph /  3.9km/h 15mph /  24.1km/h 84% 0.02in /  0.51mm 130 W/m2
12:39 41 °F /  5 °C 36.5 °F /  2.5 °C 29.02in /  982.6hPa SSW 2.4mph /  3.9km/h 9mph /  14.5km/h 84% 0.00in /  0mm 142 W/m2
12:44 41 °F /  5 °C 36.3 °F /  2.4 °C 29.02in /  982.6hPa SSW 1.3mph /  2.1km/h 9mph /  14.5km/h 83.3% 0.00in /  0mm 93 W/m2
12:49 40.9 °F /  4.9 °C 36.4 °F /  2.4 °C 29.01in /  982.3hPa SW 3.3mph /  5.3km/h 13mph /  20.9km/h 83.6% 0.00in /  0mm 62 W/m2
12:54 40.8 °F /  4.9 °C 36.1 °F /  2.3 °C 29.01in /  982.3hPa SSW 1.9mph /  3.1km/h 13mph /  20.9km/h 83% 0.00in /  0mm 47 W/m2
12:59 40.8 °F /  4.9 °C 36 °F /  2.2 °C 29.01in /  982.3hPa SSW 1.7mph /  2.7km/h 13mph /  20.9km/h 83% 0.00in /  0mm 49 W/m2
13:04 40.7 °F /  4.8 °C 36.2 °F /  2.3 °C 29.01in /  982.3hPa SSW 1.8mph /  2.9km/h 13mph /  20.9km/h 83.8% 0.00in /  0mm 67 W/m2
13:09 40.7 °F /  4.8 °C 36.2 °F /  2.3 °C 29.01in /  982.3hPa SW 2.4mph /  3.9km/h 10mph /  16.1km/h 84% 0.00in /  0mm 102 W/m2
13:14 40.6 °F /  4.8 °C 36.2 °F /  2.3 °C 29.01in /  982.3hPa SW 5.3mph /  8.5km/h 13mph /  20.9km/h 84% 0.00in /  0mm 98 W/m2
13:19 40.6 °F /  4.8 °C 35.8 °F /  2.1 °C 29.01in /  982.3hPa SW 2.4mph /  3.9km/h 13mph /  20.9km/h 83.1% 0.00in /  0mm 69 W/m2
13:24 40.5 °F /  4.7 °C 35.8 °F /  2.1 °C 29.01in /  982.3hPa SW 2.7mph /  4.3km/h 13mph /  20.9km/h 83% 0.00in /  0mm 58 W/m2
13:29 40.5 °F /  4.7 °C 35.5 °F /  1.9 °C 29.01in /  982.3hPa SW 2.5mph /  4km/h 13mph /  20.9km/h 82.4% 0.00in /  0mm 46 W/m2
13:34 40.4 °F /  4.7 °C 35.5 °F /  1.9 °C 29.01in /  982.3hPa SW 3mph /  4.8km/h 13mph /  20.9km/h 82.3% 0.00in /  0mm 51 W/m2
13:39 40.4 °F /  4.7 °C 35.6 °F /  2 °C 29.01in /  982.3hPa SW 3.6mph /  5.8km/h 13mph /  20.9km/h 83% 0.00in /  0mm 54 W/m2
13:44 40.3 °F /  4.6 °C 35.6 °F /  2 °C 29.02in /  982.6hPa SSW 3.5mph /  5.6km/h 13mph /  20.9km/h 83% 0.00in /  0mm 54 W/m2
13:49 40.1 °F /  4.5 °C 35.5 °F /  1.9 °C 29.03in /  983hPa SW 4.4mph /  7.1km/h 13mph /  20.9km/h 83.4% 0.00in /  0mm 60 W/m2
13:54 40 °F /  4.4 °C 35.5 °F /  1.9 °C 29.03in /  983hPa SW 4.3mph /  6.9km/h 13mph /  20.9km/h 84% 0.00in /  0mm 49 W/m2
13:59 39.8 °F /  4.3 °C 35.6 °F /  2 °C 29.03in /  983hPa SW 4.4mph /  7.1km/h 14mph /  22.5km/h 84.9% 0.00in /  0mm 54 W/m2
14:04 39.7 °F /  4.3 °C 35.3 °F /  1.8 °C 29.03in /  983hPa SW 2.6mph /  4.2km/h 14mph /  22.5km/h 84.1% 0.00in /  0mm 42 W/m2
14:09 39.6 °F /  4.2 °C 35.4 °F /  1.9 °C 29.03in /  983hPa SW 2mph /  3.2km/h 9mph /  14.5km/h 84.8% 0.00in /  0mm 35 W/m2
14:14 39.5 °F /  4.2 °C 35.4 °F /  1.9 °C 29.04in /  983.3hPa SSW 3.3mph /  5.3km/h 10mph /  16.1km/h 85% 0.00in /  0mm 63 W/m2
14:19 39.5 °F /  4.2 °C 35.4 °F /  1.9 °C 29.04in /  983.3hPa SW 1.5mph /  2.4km/h 10mph /  16.1km/h 85% 0.00in /  0mm 53 W/m2
14:24 39.4 °F /  4.1 °C 35.3 °F /  1.8 °C 29.04in /  983.3hPa SW 2.2mph /  3.5km/h 10mph /  16.1km/h 85% 0.00in /  0mm 39 W/m2
14:29 39.4 °F /  4.1 °C 35.3 °F /  1.8 °C 29.04in /  983.3hPa SW 1.9mph /  3.1km/h 10mph /  16.1km/h 85% 0.00in /  0mm 28 W/m2
14:34 39.3 °F /  4.1 °C 34.9 °F /  1.6 °C 29.04in /  983.3hPa SW 1.3mph /  2.1km/h 10mph /  16.1km/h 84.1% 0.00in /  0mm 42 W/m2
14:39 39.3 °F /  4.1 °C 34.9 °F /  1.6 °C 29.05in /  983.6hPa SW 3.1mph /  5km/h 8mph /  12.9km/h 84% 0.00in /  0mm 37 W/m2
14:44 39.2 °F /  4 °C 34.6 °F /  1.4 °C 29.05in /  983.6hPa SW 4.5mph /  7.2km/h 12mph /  19.3km/h 83.6% 0.00in /  0mm 23 W/m2
14:49 39 °F /  3.9 °C 34.3 °F /  1.3 °C 29.05in /  983.6hPa SW 2.7mph /  4.3km/h 12mph /  19.3km/h 83% 0.00in /  0mm 16 W/m2
14:54 38.9 °F /  3.8 °C 34.2 °F /  1.2 °C 29.06in /  984hPa SW 3.5mph /  5.6km/h 12mph /  19.3km/h 83% 0.00in /  0mm 14 W/m2
14:59 38.8 °F /  3.8 °C 34.1 °F /  1.2 °C 29.06in /  984hPa SW 3.3mph /  5.3km/h 12mph /  19.3km/h 83% 0.00in /  0mm 12 W/m2
15:04 38.7 °F /  3.7 °C 34 °F /  1.1 °C 29.06in /  984hPa SW 2.3mph /  3.7km/h 12mph /  19.3km/h 83% 0.00in /  0mm 12 W/m2
15:09 38.6 °F /  3.7 °C 34.1 °F /  1.2 °C 29.06in /  984hPa SW 1.5mph /  2.4km/h 10mph /  16.1km/h 83.7% 0.00in /  0mm 12 W/m2
15:14 38.6 °F /  3.7 °C 34.1 °F /  1.2 °C 29.06in /  984hPa SW 2.4mph /  3.9km/h 10mph /  16.1km/h 84% 0.00in /  0mm 11 W/m2
15:19 38.5 °F /  3.6 °C 34.1 °F /  1.2 °C 29.06in /  984hPa SW 2.7mph /  4.3km/h 12mph /  19.3km/h 84% 0.00in /  0mm 11 W/m2
15:24 38.4 °F /  3.6 °C 34 °F /  1.1 °C 29.06in /  984hPa SW 3.5mph /  5.6km/h 12mph /  19.3km/h 84% 0.00in /  0mm 11 W/m2
15:29 38.3 °F /  3.5 °C 33.9 °F /  1.1 °C 29.06in /  984hPa SW 1.6mph /  2.6km/h 12mph /  19.3km/h 84% 0.00in /  0mm 11 W/m2
15:34 38.2 °F /  3.4 °C 33.8 °F /  1 °C 29.06in /  984hPa SW 3.1mph /  5km/h 12mph /  19.3km/h 84% 0.00in /  0mm 12 W/m2
15:39 38.1 °F /  3.4 °C 33.7 °F /  0.9 °C 29.06in /  984hPa SW 5.1mph /  8.2km/h 13mph /  20.9km/h 84% 0.00in /  0mm 12 W/m2
15:44 38.1 °F /  3.4 °C 33.7 °F /  0.9 °C 29.06in /  984hPa SW 3.7mph /  6km/h 13mph /  20.9km/h 84% 0.00in /  0mm 14 W/m2
15:49 38 °F /  3.3 °C 33.6 °F /  0.9 °C 29.07in /  984.3hPa SW 3.7mph /  6km/h 13mph /  20.9km/h 84% 0.00in /  0mm 11 W/m2
15:54 38 °F /  3.3 °C 33.6 °F /  0.9 °C 29.07in /  984.3hPa SW 3.7mph /  6km/h 13mph /  20.9km/h 84% 0.00in /  0mm 14 W/m2
15:59 38 °F /  3.3 °C 33.4 °F /  0.8 °C 29.07in /  984.3hPa SW 2.3mph /  3.7km/h 13mph /  20.9km/h 83.2% 0.00in /  0mm 14 W/m2
16:00 38 °F /  3.3 °C 33.3 °F /  0.7 °C 29.07in /  984.3hPa WSW 4mph /  6.4km/h 13mph /  20.9km/h 83% 0.00in /  0mm 12 W/m2
16:09 37.9 °F /  3.3 °C 33.2 °F /  0.7 °C 29.08in /  984.6hPa SW 5.2mph /  8.4km/h 13mph /  20.9km/h 83% 0.00in /  0mm 12 W/m2
16:14 37.9 °F /  3.3 °C 33.2 °F /  0.7 °C 29.08in /  984.6hPa SW 3.6mph /  5.8km/h 13mph /  20.9km/h 83% 0.00in /  0mm 11 W/m2
16:19 37.9 °F /  3.3 °C 33 °F /  0.6 °C 29.08in /  984.6hPa SW 2.4mph /  3.9km/h 13mph /  20.9km/h 82.1% 0.00in /  0mm 11 W/m2
16:24 37.9 °F /  3.3 °C 33 °F /  0.6 °C 29.08in /  984.6hPa SW 1.6mph /  2.6km/h 13mph /  20.9km/h 82% 0.00in /  0mm 7 W/m2
16:29 37.9 °F /  3.3 °C 33.2 °F /  0.7 °C 29.08in /  984.6hPa SW 2.1mph /  3.4km/h 13mph /  20.9km/h 83% 0.00in /  0mm 5 W/m2
16:34 37.9 °F /  3.3 °C 33.2 °F /  0.7 °C 29.09in /  985hPa SW 1.1mph /  1.8km/h 13mph /  20.9km/h 82.9% 0.00in /  0mm 0 W/m2
16:39 37.9 °F /  3.3 °C 33.2 °F /  0.7 °C 29.08in /  984.6hPa SW 1.9mph /  3.1km/h 7mph /  11.3km/h 83% 0.00in /  0mm 0 W/m2
16:44 37.9 °F /  3.3 °C 33.2 °F /  0.7 °C 29.08in /  984.6hPa SW 1.9mph /  3.1km/h 7mph /  11.3km/h 83% 0.00in /  0mm 0 W/m2
16:49 37.8 °F /  3.2 °C 33.1 °F /  0.6 °C 29.09in /  985hPa SW 1.6mph /  2.6km/h 9mph /  14.5km/h 83% 0.00in /  0mm 0 W/m2
16:54 37.8 °F /  3.2 °C 33.1 °F /  0.6 °C 29.09in /  985hPa SW 1.7mph /  2.7km/h 9mph /  14.5km/h 83% 0.00in /  0mm 0 W/m2
16:59 37.7 °F /  3.2 °C 33 °F /  0.6 °C 29.10in /  985.3hPa SW 2.2mph /  3.5km/h 9mph /  14.5km/h 83% 0.00in /  0mm 0 W/m2
17:04 37.7 °F /  3.2 °C 33 °F /  0.6 °C 29.10in /  985.3hPa SW 2.2mph /  3.5km/h 10mph /  16.1km/h 83% 0.00in /  0mm 0 W/m2
17:09 37.6 °F /  3.1 °C 32.9 °F /  0.5 °C 29.10in /  985.3hPa SW 0.7mph /  1.1km/h 10mph /  16.1km/h 83% 0.00in /  0mm 0 W/m2
17:14 37.5 °F /  3.1 °C 32.9 °F /  0.5 °C 29.10in /  985.3hPa SW 1.8mph /  2.9km/h 10mph /  16.1km/h 83.1% 0.00in /  0mm 0 W/m2
17:19 37.5 °F /  3.1 °C 33.1 °F /  0.6 °C 29.10in /  985.3hPa SW 2.2mph /  3.5km/h 10mph /  16.1km/h 84% 0.00in /  0mm 0 W/m2
17:24 37.4 °F /  3 °C 33 °F /  0.6 °C 29.10in /  985.3hPa SW 2.2mph /  3.5km/h 10mph /  16.1km/h 84% 0.00in /  0mm 0 W/m2
17:29 37.3 °F /  2.9 °C 32.9 °F /  0.5 °C 29.10in /  985.3hPa SW 2mph /  3.2km/h 10mph /  16.1km/h 84% 0.00in /  0mm 0 W/m2
17:34 37.3 °F /  2.9 °C 32.9 °F /  0.5 °C 29.11in /  985.7hPa SW 1.7mph /  2.7km/h 10mph /  16.1km/h 84% 0.00in /  0mm 0 W/m2
17:39 37.3 °F /  2.9 °C 33 °F /  0.6 °C 29.11in /  985.7hPa WSW 1.5mph /  2.4km/h 6mph /  9.7km/h 84.3% 0.00in /  0mm 0 W/m2
17:44 37.2 °F /  2.9 °C 33.1 °F /  0.6 °C 29.11in /  985.7hPa WSW 0.9mph /  1.4km/h 6mph /  9.7km/h 85% 0.00in /  0mm 0 W/m2
17:49 37.1 °F /  2.8 °C 33.1 °F /  0.6 °C 29.11in /  985.7hPa SW 1.5mph /  2.4km/h 7mph /  11.3km/h 85.1% 0.00in /  0mm 0 W/m2
17:54 37 °F /  2.8 °C 33.2 °F /  0.7 °C 29.12in /  986hPa SW 1.1mph /  1.8km/h 7mph /  11.3km/h 86% 0.00in /  0mm 0 W/m2
17:59 36.7 °F /  2.6 °C 33.1 °F /  0.6 °C 29.12in /  986hPa SW 0.7mph /  1.1km/h 7mph /  11.3km/h 86.7% 0.00in /  0mm 0 W/m2
18:04 36.5 °F /  2.5 °C 33.1 °F /  0.6 °C 29.12in /  986hPa SW 0.1mph /  0.2km/h 7mph /  11.3km/h 87.5% 0.00in /  0mm 0 W/m2
18:09 36.2 °F /  2.3 °C 33 °F /  0.6 °C 29.12in /  986hPa SW 1mph /  1.6km/h 5mph /  8km/h 88% 0.00in /  0mm 0 W/m2
18:14 36 °F /  2.2 °C 33 °F /  0.6 °C 29.13in /  986.3hPa SW 1.2mph /  1.9km/h 5mph /  8km/h 88.8% 0.00in /  0mm 0 W/m2
18:19 35.8 °F /  2.1 °C 33 °F /  0.6 °C 29.13in /  986.3hPa Calm   5mph /  8km/h 89.3% 0.00in /  0mm 0 W/m2
18:24 35.6 °F /  2 °C 33 °F /  0.6 °C 29.13in /  986.3hPa SW 0.4mph /  0.6km/h 5mph /  8km/h 90% 0.00in /  0mm 0 W/m2
18:29 35.5 °F /  1.9 °C 32.9 °F /  0.5 °C 29.13in /  986.3hPa SW 0.3mph /  0.5km/h 5mph /  8km/h 90% 0.00in /  0mm 0 W/m2
18:34 35.4 °F /  1.9 °C 32.8 °F /  0.4 °C 29.13in /  986.3hPa SW 0.1mph /  0.2km/h 5mph /  8km/h 90.4% 0.00in /  0mm 0 W/m2
18:39 35.3 °F /  1.8 °C 32.9 °F /  0.5 °C 29.13in /  986.3hPa Calm   2mph /  3.2km/h 91% 0.00in /  0mm 0 W/m2
18:44 35.1 °F /  1.7 °C 32.8 °F /  0.4 °C 29.13in /  986.3hPa Calm   2mph /  3.2km/h 91% 0.00in /  0mm 0 W/m2
18:49 35 °F /  1.7 °C 32.7 °F /  0.4 °C 29.13in /  986.3hPa SW 0.1mph /  0.2km/h 2mph /  3.2km/h 91% 0.00in /  0mm 0 W/m2
18:54 35 °F /  1.7 °C 32.9 °F /  0.5 °C 29.13in /  986.3hPa Calm   2mph /  3.2km/h 92% 0.00in /  0mm 0 W/m2
18:59 34.9 °F /  1.6 °C 32.8 °F /  0.4 °C 29.13in /  986.3hPa Calm   2mph /  3.2km/h 92% 0.00in /  0mm 0 W/m2
19:04 34.8 °F /  1.6 °C 32.7 °F /  0.4 °C 29.13in /  986.3hPa Calm   2mph /  3.2km/h 92% 0.00in /  0mm 0 W/m2
19:09 34.7 °F /  1.5 °C 32.6 °F /  0.3 °C 29.13in /  986.3hPa Calm   1mph /  1.6km/h 92% 0.00in /  0mm 0 W/m2
19:14 34.7 °F /  1.5 °C 32.6 °F /  0.3 °C 29.14in /  986.7hPa Calm   1mph /  1.6km/h 92% 0.00in /  0mm 0 W/m2
19:19 34.6 °F /  1.4 °C 32.5 °F /  0.3 °C 29.14in /  986.7hPa SW 0.1mph /  0.2km/h 1mph /  1.6km/h 92% 0.00in /  0mm 0 W/m2
19:24 34.6 °F /  1.4 °C 32.8 °F /  0.4 °C 29.14in /  986.7hPa SW 0.1mph /  0.2km/h 2mph /  3.2km/h 93% 0.00in /  0mm 0 W/m2
19:29 34.5 °F /  1.4 °C 32.7 °F /  0.4 °C 29.14in /  986.7hPa Calm   2mph /  3.2km/h 93% 0.00in /  0mm 0 W/m2
19:34 34.5 °F /  1.4 °C 32.7 °F /  0.4 °C 29.14in /  986.7hPa Calm   2mph /  3.2km/h 93% 0.00in /  0mm 0 W/m2
19:39 34.5 °F /  1.4 °C 32.7 °F /  0.4 °C 29.15in /  987hPa SW 0.2mph /  0.3km/h 2mph /  3.2km/h 93% 0.00in /  0mm 0 W/m2
19:44 34.5 °F /  1.4 °C 32.7 °F /  0.4 °C 29.15in /  987hPa SW 0.2mph /  0.3km/h 3mph /  4.8km/h 93% 0.00in /  0mm 0 W/m2
19:49 34.5 °F /  1.4 °C 32.7 °F /  0.4 °C 29.15in /  987hPa Calm   3mph /  4.8km/h 93% 0.00in /  0mm 0 W/m2
19:54 34.6 °F /  1.4 °C 32.8 °F /  0.4 °C 29.15in /  987hPa SW 0.3mph /  0.5km/h 3mph /  4.8km/h 93% 0.00in /  0mm 0 W/m2
19:59 34.6 °F /  1.4 °C 32.8 °F /  0.4 °C 29.15in /  987hPa SW 0.3mph /  0.5km/h 4mph /  6.4km/h 93% 0.00in /  0mm 0 W/m2
20:00 34.6 °F /  1.4 °C 32.8 °F /  0.4 °C 29.15in /  987hPa Calm   4mph /  6.4km/h 93% 0.00in /  0mm 0 W/m2
20:09 34.6 °F /  1.4 °C 33 °F /  0.6 °C 29.16in /  987.4hPa Calm     93.9% 0.00in /  0mm 0 W/m2
20:14 34.6 °F /  1.4 °C 33.1 °F /  0.6 °C 29.16in /  987.4hPa SW 0.3mph /  0.5km/h 3mph /  4.8km/h 94% 0.00in /  0mm 0 W/m2
20:19 34.7 °F /  1.5 °C 33.1 °F /  0.6 °C 29.16in /  987.4hPa Calm   3mph /  4.8km/h 94% 0.00in /  0mm 0 W/m2
20:24 34.7 °F /  1.5 °C 33.2 °F /  0.7 °C 29.16in /  987.4hPa SW 0.3mph /  0.5km/h 3mph /  4.8km/h 94% 0.01in /  0.25mm 0 W/m2
20:29 34.7 °F /  1.5 °C 33.2 °F /  0.7 °C 29.17in /  987.7hPa SW 0.3mph /  0.5km/h 3mph /  4.8km/h 94% 0.01in /  0.25mm 0 W/m2
20:34 34.7 °F /  1.5 °C 33.2 °F /  0.7 °C 29.17in /  987.7hPa SW 0.3mph /  0.5km/h 3mph /  4.8km/h 94% 0.01in /  0.25mm 0 W/m2
20:39 34.8 °F /  1.6 °C 33.2 °F /  0.7 °C 29.17in /  987.7hPa Calm   2mph /  3.2km/h 94% 0.01in /  0.25mm 0 W/m2
20:44 34.8 °F /  1.6 °C 33.3 °F /  0.7 °C 29.18in /  988hPa Calm   2mph /  3.2km/h 94% 0.01in /  0.25mm 0 W/m2
20:49 34.8 °F /  1.6 °C 33.3 °F /  0.7 °C 29.18in /  988hPa SW 0.3mph /  0.5km/h 4mph /  6.4km/h 94% 0.01in /  0.25mm 0 W/m2
20:54 34.8 °F /  1.6 °C 33.3 °F /  0.7 °C 29.19in /  988.4hPa SW 0.1mph /  0.2km/h 4mph /  6.4km/h 94% 0.01in /  0.25mm 0 W/m2
20:59 34.8 °F /  1.6 °C 33.3 °F /  0.7 °C 29.19in /  988.4hPa Calm   4mph /  6.4km/h 94% 0.01in /  0.25mm 0 W/m2
21:04 34.8 °F /  1.6 °C 33.3 °F /  0.7 °C 29.19in /  988.4hPa SW 0.6mph /  1km/h 4mph /  6.4km/h 94% 0.01in /  0.25mm 0 W/m2
21:09 34.9 °F /  1.6 °C 33.3 °F /  0.7 °C 29.20in /  988.7hPa SW 0.1mph /  0.2km/h 4mph /  6.4km/h 94% 0.01in /  0.25mm 0 W/m2
21:14 34.9 °F /  1.6 °C 33.4 °F /  0.8 °C 29.20in /  988.7hPa SW 0.1mph /  0.2km/h 4mph /  6.4km/h 94% 0.01in /  0.25mm 0 W/m2
21:19 35 °F /  1.7 °C 33.4 °F /  0.8 °C 29.20in /  988.7hPa SW 0.1mph /  0.2km/h 4mph /  6.4km/h 94% 0.01in /  0.25mm 0 W/m2
21:24 35 °F /  1.7 °C 33.5 °F /  0.8 °C 29.20in /  988.7hPa Calm   4mph /  6.4km/h 94% 0.01in /  0.25mm 0 W/m2
21:29 35 °F /  1.7 °C 33.5 °F /  0.8 °C 29.20in /  988.7hPa Calm   4mph /  6.4km/h 94% 0.01in /  0.25mm 0 W/m2
21:34 35 °F /  1.7 °C 33.5 °F /  0.8 °C 29.20in /  988.7hPa Calm   4mph /  6.4km/h 94% 0.01in /  0.25mm 0 W/m2
21:39 35 °F /  1.7 °C 33.5 °F /  0.8 °C 29.21in /  989.1hPa SW 0.3mph /  0.5km/h 3mph /  4.8km/h 94% 0.00in /  0mm 0 W/m2
21:44 35 °F /  1.7 °C 33.4 °F /  0.8 °C 29.21in /  989.1hPa SW 0.2mph /  0.3km/h 3mph /  4.8km/h 94% 0.00in /  0mm 0 W/m2
21:49 34.9 °F /  1.6 °C 33.3 °F /  0.7 °C 29.22in /  989.4hPa West 1.6mph /  2.6km/h 6mph /  9.7km/h 94% 0.00in /  0mm 0 W/m2
21:54 34.7 °F /  1.5 °C 32.9 °F /  0.5 °C 29.22in /  989.4hPa WNW 3.9mph /  6.3km/h 11mph /  17.7km/h 93.1% 0.00in /  0mm 0 W/m2
21:59 34.4 °F /  1.3 °C 32.5 °F /  0.3 °C 29.22in /  989.4hPa WNW 3.2mph /  5.1km/h 11mph /  17.7km/h 92.6% 0.00in /  0mm 0 W/m2
22:04 34.3 °F /  1.3 °C 32.1 °F /  0.1 °C 29.23in /  989.7hPa WNW 3.8mph /  6.1km/h 11mph /  17.7km/h 91.5% 0.00in /  0mm 0 W/m2
22:09 34.3 °F /  1.3 °C 31.5 °F /  -0.3 °C 29.23in /  989.7hPa WNW 2.8mph /  4.5km/h 11mph /  17.7km/h 89.3% 0.00in /  0mm 0 W/m2
22:14 34.3 °F /  1.3 °C 31 °F /  -0.6 °C 29.23in /  989.7hPa WNW 3.1mph /  5km/h 14mph /  22.5km/h 87.5% 0.00in /  0mm 0 W/m2
22:19 34.3 °F /  1.3 °C 30.5 °F /  -0.8 °C 29.23in /  989.7hPa WNW 5.6mph /  9km/h 14mph /  22.5km/h 85.9% 0.00in /  0mm 0 W/m2
22:24 34.3 °F /  1.3 °C 30.1 °F /  -1.1 °C 29.24in /  990.1hPa WNW 4.1mph /  6.6km/h 14mph /  22.5km/h 84.4% 0.00in /  0mm 0 W/m2
22:29 34.2 °F /  1.2 °C 29.6 °F /  -1.3 °C 29.24in /  990.1hPa WNW 5.4mph /  8.7km/h 17mph /  27.4km/h 83% 0.00in /  0mm 0 W/m2
22:34 34.2 °F /  1.2 °C 29 °F /  -1.7 °C 29.25in /  990.4hPa NW 3mph /  4.8km/h 17mph /  27.4km/h 81.1% 0.00in /  0mm 0 W/m2
22:39 34.2 °F /  1.2 °C 28.8 °F /  -1.8 °C 29.25in /  990.4hPa NW 6.3mph /  10.1km/h 19mph /  30.6km/h 80.5% 0.00in /  0mm 0 W/m2
22:44 34.1 °F /  1.2 °C 28.5 °F /  -1.9 °C 29.25in /  990.4hPa NW 5.6mph /  9km/h 19mph /  30.6km/h 79.7% 0.00in /  0mm 0 W/m2
22:49 34.1 °F /  1.2 °C 28.3 °F /  -2.1 °C 29.25in /  990.4hPa WNW 4.4mph /  7.1km/h 19mph /  30.6km/h 79% 0.00in /  0mm 0 W/m2
22:54 34 °F /  1.1 °C 27.9 °F /  -2.3 °C 29.25in /  990.4hPa WNW 8.2mph /  13.2km/h 19mph /  30.6km/h 78.2% 0.00in /  0mm 0 W/m2
22:59 34 °F /  1.1 °C 27.8 °F /  -2.3 °C 29.26in /  990.7hPa WNW 6.2mph /  10km/h 19mph /  30.6km/h 77.8% 0.00in /  0mm 0 W/m2
23:00 33.9 °F /  1.1 °C 27.5 °F /  -2.5 °C 29.26in /  990.7hPa WNW 6mph /  9.7km/h 19mph /  30.6km/h 77% 0.00in /  0mm 0 W/m2
23:09 33.9 °F /  1.1 °C 27.5 °F /  -2.5 °C 29.27in /  991.1hPa WNW 6.3mph /  10.1km/h 13mph /  20.9km/h 77% 0.00in /  0mm 0 W/m2
23:14 33.9 °F /  1.1 °C 27.2 °F /  -2.7 °C 29.28in /  991.4hPa WNW 5.8mph /  9.3km/h 16mph /  25.7km/h 76.1% 0.00in /  0mm 0 W/m2
23:19 33.9 °F /  1.1 °C 27.2 °F /  -2.7 °C 29.28in /  991.4hPa WNW 2.3mph /  3.7km/h 16mph /  25.7km/h 76% 0.00in /  0mm 0 W/m2
23:24 33.9 °F /  1.1 °C 27.2 °F /  -2.7 °C 29.28in /  991.4hPa WNW 4.6mph /  7.4km/h 16mph /  25.7km/h 76% 0.00in /  0mm 0 W/m2
23:29 33.9 °F /  1.1 °C 27.2 °F /  -2.7 °C 29.28in /  991.4hPa NW 2.4mph /  3.9km/h 16mph /  25.7km/h 76% 0.00in /  0mm 0 W/m2
23:34 33.8 °F /  1 °C 27.1 °F /  -2.7 °C 29.28in /  991.4hPa WNW 4.3mph /  6.9km/h 16mph /  25.7km/h 76% 0.00in /  0mm 0 W/m2
23:39 33.7 °F /  0.9 °C 26.9 °F /  -2.8 °C 29.29in /  991.8hPa WNW 4.5mph /  7.2km/h 15mph /  24.1km/h 75.6% 0.00in /  0mm 0 W/m2
23:44 33.7 °F /  0.9 °C 26.5 °F /  -3.1 °C 29.29in /  991.8hPa NW 8.2mph /  13.2km/h 18mph /  29km/h 74.4% 0.00in /  0mm 0 W/m2
23:49 33.7 °F /  0.9 °C 25.7 °F /  -3.5 °C 29.29in /  991.8hPa NW 10mph /  16.1km/h 20mph /  32.2km/h 72.1% 0.00in /  0mm 0 W/m2
23:54 33.6 °F /  0.9 °C 25.4 °F /  -3.7 °C 29.30in /  992.1hPa WNW 8.6mph /  13.8km/h 20mph /  32.2km/h 71.4% 0.00in /  0mm 0 W/m2
23:59 33.6 °F /  0.9 °C 25.2 °F /  -3.8 °C 29.30in /  992.1hPa WNW 9.2mph /  14.8km/h 20mph /  32.2km/h 71% 0.00in /  0mm 0 W/m2
Hartford County Weather
Compliments of Weather Underground - 2 mb